createdAt,value
2017-09-04T00:00:08.664Z,15.75
2017-09-04T00:01:18.685Z,15.8
2017-09-04T00:02:29.067Z,15.8
2017-09-04T00:03:38.767Z,15.8
2017-09-04T00:04:49.105Z,15.92
2017-09-04T00:05:59.167Z,15.84
2017-09-04T00:07:09.217Z,15.96
2017-09-04T00:08:19.566Z,15.91
2017-09-04T00:09:29.919Z,16.08
2017-09-04T00:10:40.264Z,16.1
2017-09-04T00:11:50.286Z,16.1
2017-09-04T00:13:00.307Z,16.13
2017-09-04T00:14:10.366Z,16.11
2017-09-04T00:15:20.734Z,16.17
2017-09-04T00:16:30.759Z,16.14
2017-09-04T00:17:41.106Z,16.14
2017-09-04T00:18:51.454Z,16.27
2017-09-04T00:20:01.798Z,16.11
2017-09-04T00:21:11.816Z,16.17
2017-09-04T00:22:21.842Z,16.25
2017-09-04T00:23:32.188Z,16.25
2017-09-04T00:24:42.216Z,16.18
2017-09-04T00:25:52.550Z,16.17
2017-09-04T00:27:02.260Z,16.25
2017-09-04T00:28:12.605Z,16.11
2017-09-04T00:29:22.627Z,16.16
2017-09-04T00:30:32.978Z,16.06
2017-09-04T00:31:43.359Z,15.99
2017-09-04T00:32:53.706Z,16.06
2017-09-04T00:34:04.041Z,16.02
2017-09-04T00:35:14.406Z,16
2017-09-04T00:36:24.440Z,15.98
2017-09-04T00:37:34.785Z,15.93
2017-09-04T00:38:45.127Z,15.88
2017-09-04T00:39:55.473Z,15.91
2017-09-04T00:41:05.807Z,15.96
2017-09-04T00:42:16.162Z,15.98
2017-09-04T00:43:26.558Z,15.96
2017-09-04T00:44:36.887Z,16
2017-09-04T00:45:47.218Z,15.99
2017-09-04T00:46:57.253Z,15.99
2017-09-04T00:48:07.592Z,16.1
2017-09-04T00:49:17.663Z,16.04
2017-09-04T00:50:27.990Z,16.1
2017-09-04T00:51:37.687Z,16.21
2017-09-04T00:52:47.705Z,16.13
2017-09-04T00:53:58.060Z,16.26
2017-09-04T00:55:08.180Z,16.27
2017-09-04T00:56:18.628Z,16.27
2017-09-04T00:57:28.641Z,16.3
2017-09-04T00:58:38.976Z,16.25
2017-09-04T00:59:49.324Z,16.21
2017-09-04T01:00:59.393Z,16.13
2017-09-04T01:02:09.419Z,16.14
2017-09-04T01:03:19.745Z,16.13
2017-09-04T01:04:30.102Z,16.11
2017-09-04T01:05:40.124Z,16.11
2017-09-04T01:06:50.517Z,16.14
2017-09-04T01:08:00.871Z,16.07
2017-09-04T01:09:11.229Z,16.06
2017-09-04T01:10:21.262Z,15.98
2017-09-04T01:11:31.621Z,15.91
2017-09-04T01:12:42.019Z,15.96
2017-09-04T01:13:52.350Z,15.98
2017-09-04T01:15:02.733Z,15.91
2017-09-04T01:16:12.750Z,15.93
2017-09-04T01:17:23.105Z,15.95
2017-09-04T01:18:33.174Z,15.96
2017-09-04T01:19:43.515Z,15.91
2017-09-04T01:20:53.835Z,15.96
2017-09-04T01:22:05.148Z,15.92
2017-09-04T01:23:15.159Z,15.92
2017-09-04T01:24:25.193Z,15.86
2017-09-04T01:25:35.533Z,15.84
2017-09-04T01:26:45.554Z,15.78
2017-09-04T01:27:55.909Z,15.75
2017-09-04T01:29:05.931Z,15.73
2017-09-04T01:30:16.305Z,15.84
2017-09-04T01:31:26.346Z,15.81
2017-09-04T01:32:36.389Z,15.74
2017-09-04T01:33:46.420Z,15.78
2017-09-04T01:34:56.447Z,15.81
2017-09-04T01:36:06.840Z,15.75
2017-09-04T01:37:17.180Z,15.62
2017-09-04T01:38:27.504Z,15.75
2017-09-04T01:39:37.863Z,15.68
2017-09-04T01:40:48.418Z,15.6
2017-09-04T01:41:58.754Z,15.74
2017-09-04T01:43:09.099Z,15.67
2017-09-04T01:44:19.437Z,15.63
2017-09-04T01:45:29.770Z,15.71
2017-09-04T01:46:39.477Z,15.73
2017-09-04T01:47:49.552Z,15.81
2017-09-04T01:48:59.268Z,15.77
2017-09-04T01:50:09.620Z,15.8
2017-09-04T01:51:19.647Z,15.8
2017-09-04T01:52:29.675Z,15.83
2017-09-04T01:53:40.067Z,15.84
2017-09-04T01:54:50.388Z,15.78
2017-09-04T01:56:00.409Z,15.83
2017-09-04T01:57:14.011Z,15.83
2017-09-04T01:58:24.922Z,15.86
2017-09-04T01:59:35.313Z,15.84
2017-09-04T02:00:46.678Z,15.92
2017-09-04T02:01:57.129Z,15.92
2017-09-04T02:03:07.148Z,15.86
2017-09-04T02:04:17.181Z,15.86
2017-09-04T02:05:26.874Z,15.86
2017-09-04T02:06:37.210Z,15.88
2017-09-04T02:07:47.559Z,15.88
2017-09-04T02:08:57.893Z,15.95
2017-09-04T02:10:08.246Z,15.91
2017-09-04T02:11:18.617Z,15.92
2017-09-04T02:12:28.960Z,15.91
2017-09-04T02:13:39.292Z,15.89
2017-09-04T02:14:49.640Z,15.96
2017-09-04T02:15:59.984Z,15.96
2017-09-04T02:17:09.749Z,15.93
2017-09-04T02:18:19.778Z,15.96
2017-09-04T02:19:30.110Z,15.96
2017-09-04T02:20:40.485Z,16
2017-09-04T02:21:50.814Z,15.99
2017-09-04T02:23:00.900Z,16
2017-09-04T02:24:11.248Z,15.95
2017-09-04T02:25:21.628Z,15.91
2017-09-04T02:26:31.980Z,16.11
2017-09-04T02:27:42.322Z,16
2017-09-04T02:28:52.654Z,16.04
2017-09-04T02:30:03.001Z,16.02
2017-09-04T02:31:13.357Z,16.04
2017-09-04T02:32:23.695Z,16.07
2017-09-04T02:33:33.720Z,16.04
2017-09-04T02:34:43.793Z,16.08
2017-09-04T02:35:54.149Z,16.17
2017-09-04T02:37:04.512Z,16.06
2017-09-04T02:38:14.848Z,16.1
2017-09-04T02:39:24.887Z,16.18
2017-09-04T02:40:35.274Z,16.06
2017-09-04T02:41:45.621Z,16.13
2017-09-04T02:42:55.647Z,16.17
2017-09-04T02:44:05.667Z,16.1
2017-09-04T02:45:16.012Z,16.06
2017-09-04T02:46:27.245Z,16.07
2017-09-04T02:47:37.587Z,16.11
2017-09-04T02:48:47.934Z,16.1
2017-09-04T02:49:58.265Z,16.06
2017-09-04T02:51:08.616Z,16.07
2017-09-04T02:52:19.007Z,16.07
2017-09-04T02:53:29.352Z,16.04
2017-09-04T02:54:39.707Z,15.98
2017-09-04T02:55:52.857Z,15.96
2017-09-04T02:57:02.871Z,16
2017-09-04T02:58:13.132Z,15.98
2017-09-04T02:59:23.170Z,15.96
2017-09-04T03:00:33.180Z,16.06
2017-09-04T03:01:43.528Z,15.99
2017-09-04T03:33:35.786Z,12.88
2017-09-04T03:34:46.114Z,12.76
2017-09-04T03:35:55.817Z,12.76
2017-09-04T03:37:05.823Z,12.86
2017-09-04T03:38:16.177Z,12.86
2017-09-04T03:39:26.563Z,12.89
2017-09-04T03:40:36.886Z,13.02
2017-09-04T03:41:46.914Z,13.17
2017-09-04T03:42:56.921Z,13.32
2017-09-04T03:44:07.244Z,13.47
2017-09-04T03:45:17.587Z,13.53
2017-09-04T03:46:27.935Z,13.68
2017-09-04T03:47:37.963Z,13.76
2017-09-04T03:48:47.984Z,13.88
2017-09-04T03:49:58.316Z,14.02
2017-09-04T03:51:08.699Z,14.11
2017-09-04T03:52:18.720Z,14.23
2017-09-04T03:53:29.064Z,14.34
2017-09-04T03:54:39.393Z,14.39
2017-09-04T03:55:49.730Z,14.52
2017-09-04T03:57:00.111Z,14.61
2017-09-04T03:58:10.133Z,14.71
2017-09-04T03:59:20.214Z,14.67
2017-09-04T04:00:30.555Z,14.7
2017-09-04T04:01:40.906Z,14.77
2017-09-04T04:02:51.306Z,14.86
2017-09-04T04:04:01.658Z,14.9
2017-09-04T04:05:11.679Z,14.9
2017-09-04T04:06:22.024Z,15
2017-09-04T04:07:32.058Z,15.02
2017-09-04T04:08:42.444Z,15.02
2017-09-04T04:09:52.801Z,15.12
2017-09-04T04:11:03.138Z,15.15
2017-09-04T04:12:13.476Z,15.13
2017-09-04T04:13:23.853Z,15.1
2017-09-04T04:14:35.159Z,15.18
2017-09-04T04:15:45.507Z,15.26
2017-09-04T04:16:55.523Z,15.26
2017-09-04T04:18:05.853Z,15.16
2017-09-04T04:19:16.192Z,15.33
2017-09-04T04:20:26.572Z,15.3
2017-09-04T04:21:36.269Z,15.27
2017-09-04T04:22:45.968Z,15.31
2017-09-04T04:23:56.316Z,15.34
2017-09-04T04:25:06.645Z,15.38
2017-09-04T04:26:16.357Z,15.35
2017-09-04T04:27:26.069Z,15.34
2017-09-04T04:28:36.395Z,15.34
2017-09-04T04:29:46.741Z,15.4
2017-09-04T04:30:57.093Z,15.4
2017-09-04T04:32:06.792Z,15.43
2017-09-04T04:33:16.821Z,15.43
2017-09-04T04:34:26.884Z,15.43
2017-09-04T04:35:36.905Z,15.51
2017-09-04T04:36:47.479Z,15.49
2017-09-04T04:37:57.820Z,15.44
2017-09-04T04:39:08.157Z,15.44
2017-09-04T04:40:18.504Z,15.45
2017-09-04T04:41:28.864Z,15.44
2017-09-04T04:42:39.196Z,15.51
2017-09-04T04:43:51.333Z,15.49
2017-09-04T04:45:01.362Z,15.45
2017-09-04T04:46:11.768Z,15.49
2017-09-04T04:47:22.096Z,15.52
2017-09-04T04:48:32.435Z,15.99
2017-09-04T04:49:42.468Z,16.58
2017-09-04T04:50:52.808Z,17.1
2017-09-04T04:52:02.830Z,17.57
2017-09-04T04:53:12.553Z,17.9
2017-09-04T04:54:22.794Z,18.14
2017-09-04T04:55:32.820Z,18.31
2017-09-04T04:56:43.150Z,18.53
2017-09-04T04:57:53.500Z,18.65
2017-09-04T04:59:03.845Z,18.86
2017-09-04T05:00:14.208Z,18.89
2017-09-04T05:01:25.863Z,18.97
2017-09-04T05:02:35.901Z,19.19
2017-09-04T05:03:45.988Z,19.32
2017-09-04T05:04:55.701Z,19.37
2017-09-04T05:06:06.046Z,19.47
2017-09-04T05:07:15.753Z,19.67
2017-09-04T05:08:25.776Z,19.78
2017-09-04T05:09:36.149Z,19.85
2017-09-04T05:10:46.186Z,20
2017-09-04T05:11:56.540Z,20.16
2017-09-04T05:13:06.880Z,20.29
2017-09-04T05:14:16.910Z,20.37
2017-09-04T05:15:26.985Z,20.51
2017-09-04T05:16:37.341Z,20.54
2017-09-04T05:17:47.679Z,20.63
2017-09-04T05:18:57.702Z,20.6
2017-09-04T05:20:08.052Z,20.25
2017-09-04T05:21:18.483Z,19.74
2017-09-04T05:22:28.828Z,19.55
2017-09-04T05:23:39.188Z,19.24
2017-09-04T05:24:49.520Z,19.17
2017-09-04T05:25:59.874Z,19.07
2017-09-04T05:27:09.913Z,18.91
2017-09-04T05:28:20.246Z,18.84
2017-09-04T05:29:30.607Z,18.91
2017-09-04T05:30:40.635Z,18.96
2017-09-04T05:31:50.665Z,19.05
2017-09-04T05:33:01.062Z,19.05
2017-09-04T05:34:11.401Z,19.19
2017-09-04T05:35:21.428Z,19.38
2017-09-04T05:36:31.452Z,19.4
2017-09-04T05:37:41.473Z,19.25
2017-09-04T05:38:51.856Z,19.1
2017-09-04T05:40:03.037Z,19.02
2017-09-04T05:41:13.403Z,18.93
2017-09-04T05:42:23.430Z,18.89
2017-09-04T05:43:33.785Z,19.19
2017-09-04T05:44:43.819Z,19.52
2017-09-04T05:45:54.166Z,19.5
2017-09-04T05:47:04.498Z,19.43
2017-09-04T05:48:14.847Z,19.2
2017-09-04T05:49:25.196Z,19.24
2017-09-04T05:50:35.592Z,19.45
2017-09-04T05:51:45.302Z,19.61
2017-09-04T05:52:55.643Z,19.65
2017-09-04T05:54:06.022Z,19.64
2017-09-04T05:55:15.727Z,19.43
2017-09-04T05:56:26.122Z,19.4
2017-09-04T05:57:36.159Z,19.38
2017-09-04T05:58:46.205Z,19.5
2017-09-04T05:59:56.549Z,19.64
2017-09-04T06:01:06.890Z,19.79
2017-09-04T06:02:17.281Z,19.82
2017-09-04T06:03:27.298Z,19.67
2017-09-04T06:04:37.646Z,19.64
2017-09-04T06:05:47.993Z,19.75
2017-09-04T06:06:58.020Z,19.74
2017-09-04T06:08:08.105Z,19.89
2017-09-04T06:09:18.447Z,19.93
2017-09-04T06:10:28.793Z,19.87
2017-09-04T06:11:38.817Z,19.74
2017-09-04T06:12:48.845Z,19.75
2017-09-04T06:13:59.235Z,19.64
2017-09-04T06:15:09.573Z,19.67
2017-09-04T06:16:19.925Z,19.56
2017-09-04T06:17:30.255Z,19.63
2017-09-04T06:18:40.283Z,19.57
2017-09-04T06:19:50.682Z,19.63
2017-09-04T06:21:01.045Z,19.56
2017-09-04T06:22:11.390Z,19.49
2017-09-04T06:23:21.729Z,19.57
2017-09-04T06:24:31.798Z,19.56
2017-09-04T06:25:42.204Z,19.52
2017-09-04T06:26:52.558Z,19.52
2017-09-04T06:28:02.899Z,19.53
2017-09-04T06:29:13.235Z,19.6
2017-09-04T06:30:23.599Z,19.68
2017-09-04T06:31:33.940Z,19.74
2017-09-04T06:32:44.293Z,19.79
2017-09-04T06:33:54.631Z,19.75
2017-09-04T06:35:04.981Z,19.85
2017-09-04T06:36:15.009Z,19.9
2017-09-04T06:37:25.419Z,19.95
2017-09-04T06:38:35.763Z,19.95
2017-09-04T06:39:46.113Z,20.01
2017-09-04T06:40:56.459Z,20.05
2017-09-04T06:42:06.803Z,20.07
2017-09-04T06:43:17.205Z,20.01
2017-09-04T06:44:27.226Z,19.92
2017-09-04T06:45:37.562Z,20.01
2017-09-04T06:46:47.909Z,20.01
2017-09-04T06:47:57.929Z,20.01
2017-09-04T06:49:08.017Z,20.02
2017-09-04T06:50:18.365Z,20.01
2017-09-04T06:51:28.727Z,20.05
2017-09-04T06:52:39.068Z,20.01
2017-09-04T06:53:49.090Z,20.01
2017-09-04T06:54:59.478Z,20.16
2017-09-04T06:56:09.830Z,20.11
2017-09-04T06:57:20.184Z,20.05
2017-09-04T06:58:30.217Z,20.11
2017-09-04T06:59:40.569Z,20.12
2017-09-04T07:00:50.317Z,20.2
2017-09-04T07:02:00.666Z,20.22
2017-09-04T07:03:11.013Z,20.18
2017-09-04T07:04:21.361Z,20.25
2017-09-04T07:05:31.432Z,20.26
2017-09-04T07:06:41.773Z,20.38
2017-09-04T07:07:52.145Z,20.48
2017-09-04T07:09:02.477Z,20.48
2017-09-04T07:10:12.189Z,20.42
2017-09-04T07:11:22.533Z,20.48
2017-09-04T07:12:32.917Z,20.63
2017-09-04T07:13:42.943Z,20.71
2017-09-04T07:14:53.286Z,20.76
2017-09-04T07:16:03.318Z,20.72
2017-09-04T07:17:13.669Z,20.75
2017-09-04T07:18:24.052Z,20.86
2017-09-04T07:19:34.378Z,20.83
2017-09-04T07:20:44.404Z,20.96
2017-09-04T07:21:54.434Z,20.97
2017-09-04T07:23:04.448Z,20.97
2017-09-04T07:24:14.805Z,20.93
2017-09-04T07:25:24.503Z,20.93
2017-09-04T07:26:34.557Z,20.94
2017-09-04T07:27:44.612Z,20.93
2017-09-04T07:28:54.947Z,20.91
2017-09-04T07:30:05.346Z,20.98
2017-09-04T07:31:15.560Z,21.01
2017-09-04T07:32:25.910Z,21
2017-09-04T07:33:35.935Z,21.12
2017-09-04T07:34:46.266Z,21.09
2017-09-04T07:35:56.662Z,21.06
2017-09-04T07:37:07.055Z,21.06
2017-09-04T07:38:17.441Z,21.13
2017-09-04T07:39:27.793Z,21.19
2017-09-04T07:40:37.820Z,21.18
2017-09-04T07:41:47.903Z,21.21
2017-09-04T07:42:58.241Z,21.22
2017-09-04T07:44:08.581Z,21.31
2017-09-04T07:45:18.611Z,21.37
2017-09-04T07:46:28.980Z,21.41
2017-09-04T07:47:39.375Z,21.43
2017-09-04T07:48:49.742Z,21.46
2017-09-04T07:50:00.134Z,21.51
2017-09-04T07:51:10.162Z,21.43
2017-09-04T07:52:20.499Z,21.46
2017-09-04T07:53:30.874Z,21.61
2017-09-04T07:54:40.907Z,21.53
2017-09-04T07:55:51.253Z,21.59
2017-09-04T07:57:01.617Z,21.62
2017-09-04T07:58:11.961Z,21.73
2017-09-04T07:59:22.301Z,21.68
2017-09-04T08:00:32.325Z,21.7
2017-09-04T08:01:42.357Z,21.8
2017-09-04T08:02:52.700Z,21.8
2017-09-04T08:04:02.741Z,21.71
2017-09-04T08:05:13.142Z,21.73
2017-09-04T08:06:23.484Z,21.89
2017-09-04T08:07:33.859Z,21.96
2017-09-04T08:08:44.216Z,22.12
2017-09-04T08:09:54.244Z,22.15
2017-09-04T08:11:04.581Z,22.24
2017-09-04T08:12:14.294Z,22.31
2017-09-04T08:13:24.645Z,22.23
2017-09-04T08:14:34.982Z,22.26
2017-09-04T08:15:45.329Z,22.27
2017-09-04T08:16:55.711Z,22.45
2017-09-04T08:18:05.728Z,22.49
2017-09-04T08:19:16.064Z,22.59
2017-09-04T08:20:26.415Z,22.7
2017-09-04T08:21:36.441Z,22.79
2017-09-04T08:22:46.839Z,22.82
2017-09-04T08:23:57.177Z,22.92
2017-09-04T08:25:07.212Z,22.91
2017-09-04T08:26:17.235Z,22.99
2017-09-04T08:27:27.580Z,22.94
2017-09-04T08:28:37.919Z,22.89
2017-09-04T08:29:48.260Z,22.92
2017-09-04T08:30:58.316Z,23.14
2017-09-04T08:32:08.645Z,23.45
2017-09-04T08:33:18.984Z,23.64
2017-09-04T08:34:29.357Z,23.96
2017-09-04T08:35:39.724Z,24.44
2017-09-04T08:36:49.755Z,24.8
2017-09-04T08:38:00.088Z,25.01
2017-09-04T08:39:10.433Z,25.08
2017-09-04T08:40:20.817Z,24.94
2017-09-04T08:41:31.148Z,25.01
2017-09-04T08:42:41.177Z,24.89
2017-09-04T08:43:51.217Z,24.9
2017-09-04T08:45:00.937Z,24.75
2017-09-04T08:46:11.327Z,24.71
2017-09-04T08:47:21.686Z,24.55
2017-09-04T08:48:32.046Z,24.56
2017-09-04T08:49:42.391Z,24.56
2017-09-04T08:50:52.738Z,24.67
2017-09-04T08:52:03.093Z,24.66
2017-09-04T08:53:13.445Z,24.64
2017-09-04T08:54:23.796Z,24.77
2017-09-04T08:55:34.148Z,24.75
2017-09-04T08:56:44.505Z,24.93
2017-09-04T08:57:54.862Z,25.17
2017-09-04T08:59:05.208Z,25.3
2017-09-04T09:00:15.240Z,25.3
2017-09-04T09:01:25.582Z,25.19
2017-09-04T09:02:35.619Z,25.12
2017-09-04T09:03:45.964Z,25.19
2017-09-04T09:04:56.304Z,25.37
2017-09-04T09:06:06.649Z,25.52
2017-09-04T09:07:17.030Z,25.59
2017-09-04T09:08:27.078Z,25.64
2017-09-04T09:09:36.854Z,25.6
2017-09-04T09:10:46.888Z,25.79
2017-09-04T09:11:57.253Z,25.91
2017-09-04T09:13:07.619Z,25.99
2017-09-04T09:14:17.965Z,25.96
2017-09-04T09:15:28.349Z,26.03
2017-09-04T09:16:38.701Z,26.09
2017-09-04T09:17:48.430Z,26.26
2017-09-04T09:18:58.495Z,26.3
2017-09-04T09:20:08.860Z,26.27
2017-09-04T09:21:19.773Z,26.41
2017-09-04T09:22:29.801Z,26.41
2017-09-04T09:23:40.157Z,26.76
2017-09-04T09:24:50.503Z,26.93
2017-09-04T09:26:00.874Z,26.86
2017-09-04T09:27:10.600Z,27.11
2017-09-04T09:28:22.395Z,26.96
2017-09-04T09:29:34.715Z,26.81
2017-09-04T09:30:45.281Z,26.5
2017-09-04T09:31:55.305Z,26.45
2017-09-04T09:33:05.706Z,26.53
2017-09-04T09:34:15.736Z,26.69
2017-09-04T09:35:26.083Z,26.67
2017-09-04T09:36:36.106Z,26.6
2017-09-04T09:37:45.826Z,26.63
2017-09-04T09:38:56.237Z,26.42
2017-09-04T09:40:06.279Z,26.39
2017-09-04T09:41:16.639Z,26.27
2017-09-04T09:42:26.351Z,26.41
2017-09-04T09:43:37.652Z,26.41
2017-09-04T09:44:47.724Z,26.39
2017-09-04T09:45:58.083Z,26.63
2017-09-04T09:47:10.428Z,26.82
2017-09-04T09:48:20.764Z,26.76
2017-09-04T09:49:30.471Z,26.64
2017-09-04T09:50:40.704Z,26.71
2017-09-04T09:51:51.060Z,26.94
2017-09-04T09:53:01.416Z,27.12
2017-09-04T09:54:11.768Z,27.34
2017-09-04T09:55:22.110Z,27.42
2017-09-04T09:56:32.511Z,27.51
2017-09-04T09:57:42.562Z,27.57
2017-09-04T09:58:52.908Z,27.37
2017-09-04T10:00:02.962Z,27.3
2017-09-04T10:01:12.998Z,26.96
2017-09-04T10:02:23.027Z,26.68
2017-09-04T10:03:33.372Z,26.69
2017-09-04T10:04:43.723Z,26.69
2017-09-04T10:05:53.755Z,26.67
2017-09-04T10:07:04.142Z,26.64
2017-09-04T10:08:14.483Z,26.64
2017-09-04T10:09:24.831Z,26.42
2017-09-04T10:10:34.544Z,26.12
2017-09-04T10:11:45.094Z,26.31
2017-09-04T10:12:55.135Z,26.31
2017-09-04T10:14:05.234Z,26.44
2017-09-04T10:15:15.589Z,26.41
2017-09-04T10:16:25.943Z,26.79
2017-09-04T10:17:36.300Z,26.96
2017-09-04T10:18:46.336Z,27.08
2017-09-04T10:19:56.682Z,27.16
2017-09-04T10:21:07.046Z,27.18
2017-09-04T10:22:17.083Z,26.87
2017-09-04T10:23:27.447Z,26.56
2017-09-04T10:24:37.794Z,26.34
2017-09-04T10:25:47.880Z,26.23
2017-09-04T10:26:58.239Z,26.06
2017-09-04T10:28:08.581Z,25.99
2017-09-04T10:29:18.617Z,25.91
2017-09-04T10:30:28.652Z,25.71
2017-09-04T10:31:39.054Z,25.24
2017-09-04T10:32:49.414Z,25.29
2017-09-04T10:33:59.755Z,25.48
2017-09-04T10:35:09.792Z,25.29
2017-09-04T10:36:19.501Z,25.52
2017-09-04T10:37:29.585Z,25.64
2017-09-04T10:38:39.625Z,25.33
2017-09-04T10:39:49.991Z,25.6
2017-09-04T10:41:00.349Z,25.76
2017-09-04T10:42:10.705Z,25.86
2017-09-04T10:43:21.046Z,26.01
2017-09-04T10:44:31.065Z,26.23
2017-09-04T10:45:41.431Z,26.44
2017-09-04T10:46:51.768Z,26.44
2017-09-04T10:48:02.144Z,26
2017-09-04T10:49:12.188Z,26.04
2017-09-04T10:50:22.575Z,26.24
2017-09-04T10:51:32.925Z,25.99
2017-09-04T10:52:42.986Z,26.19
2017-09-04T10:53:53.339Z,26.41
2017-09-04T10:55:03.744Z,26.64
2017-09-04T10:56:13.778Z,26.37
2017-09-04T10:57:24.121Z,26.15
2017-09-04T10:58:34.480Z,25.94
2017-09-04T10:59:44.842Z,26.11
2017-09-04T11:00:55.240Z,26.32
2017-09-04T11:02:05.600Z,26.41
2017-09-04T11:03:15.958Z,26.41
2017-09-04T11:04:25.990Z,26.44
2017-09-04T11:05:36.008Z,26.42
2017-09-04T11:06:46.363Z,26.39
2017-09-04T11:07:56.704Z,26.47
2017-09-04T11:09:07.059Z,26.42
2017-09-04T11:10:17.086Z,26.35
2017-09-04T11:11:27.441Z,26.42
2017-09-04T11:12:37.471Z,26.54
2017-09-04T11:13:47.828Z,26.61
2017-09-04T11:14:57.546Z,26.71
2017-09-04T11:16:07.913Z,26.78
2017-09-04T11:17:18.264Z,26.79
2017-09-04T11:18:28.772Z,26.9
2017-09-04T11:19:39.161Z,26.96
2017-09-04T11:20:49.525Z,26.97
2017-09-04T11:21:59.870Z,26.99
2017-09-04T11:23:09.907Z,26.94
2017-09-04T11:24:20.316Z,26.63
2017-09-04T11:25:30.690Z,26.12
2017-09-04T11:26:41.047Z,26.31
2017-09-04T11:27:51.097Z,26.53
2017-09-04T11:29:01.457Z,26.63
2017-09-04T11:30:11.999Z,26.94
2017-09-04T11:31:22.346Z,26.91
2017-09-04T11:32:32.697Z,26.99
2017-09-04T11:33:43.050Z,27.13
2017-09-04T11:34:53.439Z,27.26
2017-09-04T11:36:03.794Z,27.36
2017-09-04T11:37:13.510Z,27.57
2017-09-04T11:38:23.865Z,27.83
2017-09-04T11:39:34.225Z,27.71
2017-09-04T11:40:44.264Z,28.03
2017-09-04T11:41:54.617Z,28.38
2017-09-04T11:43:04.967Z,28.68
2017-09-04T11:44:14.995Z,28.91
2017-09-04T11:45:25.363Z,29.13
2017-09-04T11:46:35.754Z,29.35
2017-09-04T11:47:45.779Z,29.51
2017-09-04T11:48:55.493Z,29.14
2017-09-04T11:50:05.833Z,28.67
2017-09-04T11:51:15.894Z,28.28
2017-09-04T11:52:26.231Z,28.12
2017-09-04T11:53:36.579Z,27.9
2017-09-04T11:54:46.936Z,27.53
2017-09-04T11:55:56.954Z,27.13
2017-09-04T11:57:08.543Z,27
2017-09-04T11:58:18.586Z,26.81
2017-09-04T11:59:28.949Z,26.68
2017-09-04T12:00:39.336Z,26.52
2017-09-04T12:01:49.688Z,26.68
2017-09-04T12:03:00.083Z,26.86
2017-09-04T12:04:10.439Z,27.16
2017-09-04T12:05:20.833Z,27.38
2017-09-04T12:06:31.226Z,27.09
2017-09-04T12:07:41.295Z,26.94
2017-09-04T12:08:51.743Z,26.74
2017-09-04T12:10:02.135Z,26.45
2017-09-04T12:11:12.502Z,26.47
2017-09-04T12:12:22.542Z,26.44
2017-09-04T12:13:34.519Z,26.32
2017-09-04T12:14:44.920Z,26.31
2017-09-04T12:15:54.966Z,26.6
2017-09-04T12:17:05.323Z,26.75
2017-09-04T12:18:15.362Z,26.69
2017-09-04T12:19:27.070Z,27.11
2017-09-04T12:20:37.476Z,26.96
2017-09-04T12:21:47.832Z,27.05
2017-09-04T12:22:57.582Z,26.94
2017-09-04T12:24:07.931Z,26.96
2017-09-04T12:25:18.319Z,27.09
2017-09-04T12:26:28.749Z,27.3
2017-09-04T12:27:39.124Z,27.48
2017-09-04T12:28:49.510Z,27.64
2017-09-04T12:29:59.912Z,27.61
2017-09-04T12:31:09.984Z,27.12
2017-09-04T12:32:20.474Z,26.94
2017-09-04T12:33:30.583Z,26.64
2017-09-04T12:34:40.612Z,26.93
2017-09-04T12:35:50.991Z,26.76
2017-09-04T12:37:01.348Z,26.42
2017-09-04T12:38:12.000Z,26.35
2017-09-04T12:39:22.376Z,26.44
2017-09-04T12:40:32.731Z,26.42
2017-09-04T12:41:43.093Z,26.07
2017-09-04T12:42:53.126Z,25.81
2017-09-04T12:44:03.650Z,25.63
2017-09-04T12:45:14.030Z,25.71
2017-09-04T12:46:24.398Z,25.93
2017-09-04T12:47:34.794Z,26.27
2017-09-04T12:48:45.153Z,26.52
2017-09-04T12:49:55.573Z,26.79
2017-09-04T12:51:04.958Z,26.97
2017-09-04T12:52:15.316Z,27.08
2017-09-04T12:53:25.040Z,27.31
2017-09-04T12:54:35.391Z,27.49
2017-09-04T12:55:45.815Z,27.49
2017-09-04T12:56:56.181Z,27.55
2017-09-04T12:58:08.688Z,27.68
2017-09-04T12:59:18.749Z,27.68
2017-09-04T13:00:29.114Z,27.79
2017-09-04T13:01:39.514Z,27.93
2017-09-04T13:02:49.884Z,27.99
2017-09-04T13:04:00.222Z,28.14
2017-09-04T13:05:11.335Z,28.2
2017-09-04T13:06:21.378Z,28.42
2017-09-04T13:07:31.810Z,28.57
2017-09-04T13:08:41.542Z,28.64
2017-09-04T13:09:51.904Z,28.82
2017-09-04T13:11:01.958Z,28.85
2017-09-04T13:12:12.338Z,28.48
2017-09-04T13:13:22.689Z,28.23
2017-09-04T13:14:33.050Z,27.89
2017-09-04T13:15:43.404Z,27.61
2017-09-04T13:16:53.786Z,27.91
2017-09-04T13:18:03.807Z,28.21
2017-09-04T13:19:14.210Z,28.54
2017-09-04T13:20:24.237Z,28.68
2017-09-04T13:21:34.272Z,28.79
2017-09-04T13:22:44.309Z,29.13
2017-09-04T13:23:54.673Z,29.39
2017-09-04T13:25:04.444Z,28.94
2017-09-04T13:26:14.153Z,28.72
2017-09-04T13:27:24.225Z,28.53
2017-09-04T13:28:34.614Z,28.7
2017-09-04T13:29:44.991Z,28.45
2017-09-04T13:30:55.074Z,28.82
2017-09-04T13:32:05.420Z,28.86
2017-09-04T13:33:15.779Z,29.4
2017-09-04T13:34:26.518Z,29.48
2017-09-04T13:35:36.558Z,29.52
2017-09-04T13:36:46.920Z,29.95
2017-09-04T13:37:56.962Z,30.16
2017-09-04T13:39:06.684Z,30.35
2017-09-04T13:40:17.043Z,30.59
2017-09-04T13:41:27.380Z,30.71
2017-09-04T13:42:37.793Z,30.99
2017-09-04T13:43:48.140Z,31.01
2017-09-04T13:44:58.500Z,31.04
2017-09-04T13:46:08.853Z,30.93
2017-09-04T13:47:19.201Z,30.89
2017-09-04T13:48:28.973Z,30.88
2017-09-04T13:49:39.332Z,30.67
2017-09-04T13:50:49.681Z,30.59
2017-09-04T13:52:00.054Z,30.26
2017-09-04T13:53:10.406Z,30.16
2017-09-04T13:54:20.859Z,30
2017-09-04T13:55:31.222Z,29.79
2017-09-04T13:56:42.340Z,29.57
2017-09-04T13:57:52.379Z,29.36
2017-09-04T13:59:02.420Z,29.39
2017-09-04T14:00:12.844Z,29.1
2017-09-04T14:01:24.712Z,29.01
2017-09-04T14:02:35.114Z,28.92
2017-09-04T14:03:45.145Z,28.83
2017-09-04T14:04:55.531Z,28.67
2017-09-04T14:06:05.623Z,28.55
2017-09-04T14:07:15.977Z,28.45
2017-09-04T14:08:26.353Z,28.17
2017-09-04T14:09:37.993Z,28.18
2017-09-04T14:10:48.372Z,28.11
2017-09-04T14:11:58.449Z,28.03
2017-09-04T14:13:08.513Z,27.99
2017-09-04T14:14:18.560Z,27.91
2017-09-04T14:15:28.924Z,27.8
2017-09-04T14:16:39.266Z,27.83
2017-09-04T14:17:49.617Z,27.71
2017-09-04T14:18:59.660Z,27.68
2017-09-04T14:20:10.017Z,27.68
2017-09-04T14:21:20.397Z,27.69
2017-09-04T14:22:30.453Z,27.62
2017-09-04T14:23:40.855Z,27.69
2017-09-04T14:24:50.894Z,27.68
2017-09-04T14:26:00.929Z,27.84
2017-09-04T14:27:13.492Z,27.74
2017-09-04T14:28:23.853Z,27.72
2017-09-04T14:29:34.517Z,27.59
2017-09-04T14:30:44.901Z,27.62
2017-09-04T14:31:55.238Z,27.61
2017-09-04T14:33:05.597Z,27.53
2017-09-04T14:34:15.632Z,27.41
2017-09-04T14:35:26.044Z,27.46
2017-09-04T14:36:36.107Z,27.41
2017-09-04T14:37:46.469Z,27.41
2017-09-04T14:38:56.835Z,27.31
2017-09-04T14:40:06.901Z,27.24
2017-09-04T14:41:16.679Z,27.13
2017-09-04T14:42:27.043Z,27.09
2017-09-04T14:43:37.758Z,26.94
2017-09-04T14:44:48.117Z,26.99
2017-09-04T14:45:58.181Z,26.93
2017-09-04T14:47:08.599Z,26.91
2017-09-04T14:48:18.965Z,26.82
2017-09-04T14:49:31.595Z,26.89
2017-09-04T14:50:41.947Z,26.78
2017-09-04T14:51:52.029Z,26.75
2017-09-04T14:53:02.461Z,26.81
2017-09-04T14:54:12.827Z,26.78
2017-09-04T14:55:22.864Z,26.81
2017-09-04T14:56:33.215Z,26.74
2017-09-04T14:57:42.913Z,26.78
2017-09-04T14:58:53.360Z,26.71
2017-09-04T15:00:03.723Z,26.67
2017-09-04T15:01:13.774Z,26.57
2017-09-04T15:02:23.822Z,26.44
2017-09-04T15:03:34.161Z,26.42
2017-09-04T15:04:44.217Z,26.39
2017-09-04T15:05:54.600Z,26.31
2017-09-04T15:07:04.976Z,26.32
2017-09-04T15:08:15.346Z,26.3
2017-09-04T15:09:25.408Z,26.27
2017-09-04T15:10:35.928Z,26.31
2017-09-04T15:11:46.300Z,26.24
2017-09-04T15:12:56.028Z,26.23
2017-09-04T15:14:06.380Z,26.16
2017-09-04T15:15:16.746Z,26.06
2017-09-04T15:16:27.148Z,25.91
2017-09-04T15:17:37.180Z,25.96
2017-09-04T15:18:46.917Z,25.96
2017-09-04T15:19:57.282Z,26
2017-09-04T15:21:07.634Z,25.94
2017-09-04T15:22:18.051Z,26.06
2017-09-04T15:23:27.777Z,25.97
2017-09-04T15:24:38.141Z,25.96
2017-09-04T15:25:48.517Z,25.93
2017-09-04T15:26:58.866Z,25.94
2017-09-04T15:28:09.717Z,25.93
2017-09-04T15:29:19.449Z,25.86
2017-09-04T15:30:30.022Z,25.85
2017-09-04T15:31:40.094Z,25.85
2017-09-04T15:32:50.455Z,25.86
2017-09-04T15:34:00.830Z,25.82
2017-09-04T15:35:11.212Z,25.86
2017-09-04T15:36:21.566Z,25.76
2017-09-04T15:37:31.623Z,25.82
2017-09-04T15:38:41.964Z,25.78